Time;durP1;ratioP1;P1;durP2;ratioP2;P2;SDS_P1;SDS_P2;PMS_P1;PMS_P2;Temp;Humidity;BMP_temperature;BMP_pressure;BME280_temperature;BME280_humidity;BME280_pressure;Samples;Min_cycle;Max_cycle;Signal;HPM_P1;HPM_P2
2021/06/26 00:01:40;;;;;;;15.68;7.90;;;;;;;;;;5074994;28;20329;-48
2021/06/26 00:04:06;;;;;;;16.48;8.13;;;;;;;;;;5075664;28;20101;-47
2021/06/26 00:06:33;;;;;;;16.02;7.35;;;;;;;;;;5074299;28;20107;-47
2021/06/26 00:09:00;;;;;;;15.45;7.65;;;;;;;;;;5075116;28;20398;-48
2021/06/26 00:11:26;;;;;;;11.32;6.68;;;;;;;;;;5074627;28;20025;-47
2021/06/26 00:13:51;;;;;;;20.23;8.43;;;;;;;;;;5075182;28;20081;-48
2021/06/26 00:16:18;;;;;;;18.83;8.18;;;;;;;;;;5073947;28;20028;-48
2021/06/26 00:18:44;;;;;;;15.90;7.28;;;;;;;;;;5074266;28;20136;-48
2021/06/26 00:21:10;;;;;;;17.73;9.10;;;;;;;;;;5074001;28;20028;-47
2021/06/26 00:23:36;;;;;;;16.33;7.97;;;;;;;;;;5075432;28;20024;-47
2021/06/26 00:26:02;;;;;;;14.50;8.85;;;;;;;;;;5074548;28;20440;-47
2021/06/26 00:28:28;;;;;;;15.65;7.47;;;;;;;;;;5074731;28;20040;-48
2021/06/26 00:30:54;;;;;;;14.95;8.30;;;;;;;;;;5074389;28;20021;-48
2021/06/26 00:33:20;;;;;;;17.00;7.68;;;;;;;;;;5074694;28;20024;-47
2021/06/26 00:35:46;;;;;;;18.63;7.80;;;;;;;;;;5074658;28;20056;-48
2021/06/26 00:38:12;;;;;;;18.08;8.68;;;;;;;;;;5074476;28;20482;-48
2021/06/26 00:40:38;;;;;;;21.10;9.13;;;;;;;;;;5074030;28;20348;-48
2021/06/26 00:43:04;;;;;;;18.85;8.35;;;;;;;;;;5074853;28;20027;-48
2021/06/26 00:45:30;;;;;;;18.13;8.68;;;;;;;;;;5074920;28;20024;-48
2021/06/26 00:47:56;;;;;;;24.23;8.15;;;;;;;;;;5074678;28;20024;-47
2021/06/26 00:50:23;;;;;;;16.70;8.02;;;;;;;;;;5074090;28;20099;-47
2021/06/26 00:52:50;;;;;;;13.82;7.15;;;;;;;;;;5074713;28;20028;-48
2021/06/26 00:55:16;;;;;;;14.75;6.68;;;;;;;;;;5074988;28;20066;-48
2021/06/26 00:57:48;;;;;;;13.38;6.20;;;;;;;;;;5074114;28;20541;-48
2021/06/26 01:00:14;;;;;;;11.40;5.75;;;;;;;;;;5073541;28;20028;-48
2021/06/26 01:02:41;;;;;;;12.60;5.93;;;;;;;;;;5074300;28;20440;-47
2021/06/26 01:05:07;;;;;;;16.23;7.63;;;;;;;;;;5073829;28;20440;-47
2021/06/26 01:07:34;;;;;;;24.55;7.90;;;;;;;;;;5074594;28;20120;-47
2021/06/26 01:10:00;;;;;;;15.90;7.57;;;;;;;;;;5073805;28;20403;-48
2021/06/26 01:12:26;;;;;;;24.65;7.65;;;;;;;;;;5073467;28;20448;-48
2021/06/26 01:14:52;;;;;;;12.48;6.18;;;;;;;;;;5073929;28;20032;-47
2021/06/26 01:17:20;;;;;;;12.00;6.63;;;;;;;;;;5073847;28;20359;-47
2021/06/26 01:19:46;;;;;;;23.65;7.18;;;;;;;;;;5074092;28;20379;-47
2021/06/26 01:22:15;;;;;;;12.85;6.07;;;;;;;;;;5073462;28;20031;-48
2021/06/26 01:24:41;;;;;;;15.38;8.68;;;;;;;;;;5073893;28;20023;-47
2021/06/26 01:27:08;;;;;;;11.55;6.45;;;;;;;;;;5074043;28;20024;-48
2021/06/26 01:29:34;;;;;;;12.88;6.55;;;;;;;;;;5073801;28;20108;-47
2021/06/26 01:32:00;;;;;;;19.75;9.02;;;;;;;;;;5072990;28;20025;-47
2021/06/26 01:34:26;;;;;;;19.45;8.70;;;;;;;;;;5074090;28;20023;-48
2021/06/26 01:36:52;;;;;;;17.45;8.65;;;;;;;;;;5073544;28;20032;-48
2021/06/26 01:39:18;;;;;;;15.35;6.85;;;;;;;;;;5072135;28;20028;-48
2021/06/26 01:41:44;;;;;;;17.50;7.40;;;;;;;;;;5072428;28;20089;-47
2021/06/26 01:44:10;;;;;;;13.38;7.45;;;;;;;;;;5073663;28;20028;-48
2021/06/26 01:46:38;;;;;;;13.80;6.72;;;;;;;;;;5073457;28;20455;-47
2021/06/26 01:49:08;;;;;;;17.20;8.18;;;;;;;;;;5073761;28;20420;-47
2021/06/26 01:51:35;;;;;;;11.85;6.82;;;;;;;;;;5072445;28;20047;-48
2021/06/26 01:54:02;;;;;;;14.45;6.97;;;;;;;;;;5073803;28;20028;-48
2021/06/26 01:56:28;;;;;;;13.77;7.05;;;;;;;;;;5073534;28;20028;-47
2021/06/26 01:58:54;;;;;;;13.25;6.65;;;;;;;;;;5073577;28;20135;-48
2021/06/26 02:01:20;;;;;;;14.48;7.10;;;;;;;;;;5072646;28;20103;-47
2021/06/26 02:03:46;;;;;;;16.02;6.57;;;;;;;;;;5073139;28;20439;-48
2021/06/26 02:06:12;;;;;;;13.90;7.57;;;;;;;;;;5072684;28;20028;-47
2021/06/26 02:08:38;;;;;;;10.50;6.60;;;;;;;;;;5073043;28;20055;-48
2021/06/26 02:11:04;;;;;;;18.30;8.60;;;;;;;;;;5072408;28;20024;-47
2021/06/26 02:13:30;;;;;;;17.65;8.85;;;;;;;;;;5073499;28;20104;-47
2021/06/26 02:15:56;;;;;;;15.43;7.90;;;;;;;;;;5072791;28;20390;-47
2021/06/26 02:18:22;;;;;;;13.55;7.30;;;;;;;;;;5072802;28;20079;-48
2021/06/26 02:20:48;;;;;;;16.30;7.47;;;;;;;;;;5071804;28;20041;-47
2021/06/26 02:23:14;;;;;;;16.95;7.68;;;;;;;;;;5073232;28;20025;-48
2021/06/26 02:25:40;;;;;;;19.23;8.20;;;;;;;;;;5073099;28;20393;-47
2021/06/26 02:28:06;;;;;;;18.08;8.77;;;;;;;;;;5072816;28;20067;-48
2021/06/26 02:30:32;;;;;;;17.42;8.60;;;;;;;;;;5072333;28;20343;-48
2021/06/26 02:32:58;;;;;;;14.25;7.78;;;;;;;;;;5072778;28;20078;-48
2021/06/26 02:35:24;;;;;;;18.20;8.15;;;;;;;;;;5072545;28;20056;-48
2021/06/26 02:37:50;;;;;;;20.20;9.13;;;;;;;;;;5072977;28;20044;-48
2021/06/26 02:40:16;;;;;;;23.23;8.68;;;;;;;;;;5071941;28;20020;-48
2021/06/26 02:42:43;;;;;;;21.02;9.10;;;;;;;;;;5057092;28;20028;-48
2021/06/26 02:45:10;;;;;;;17.45;8.35;;;;;;;;;;5072728;28;20070;-47
2021/06/26 02:47:36;;;;;;;19.13;7.93;;;;;;;;;;5072596;28;20016;-48
2021/06/26 02:50:02;;;;;;;15.65;6.13;;;;;;;;;;5072257;28;20077;-47
2021/06/26 02:52:28;;;;;;;21.55;7.47;;;;;;;;;;5072417;28;20119;-48
2021/06/26 02:54:54;;;;;;;20.05;7.97;;;;;;;;;;5072698;28;20028;-47
2021/06/26 02:57:20;;;;;;;17.85;8.05;;;;;;;;;;5072264;28;20036;-48
2021/06/26 02:59:48;;;;;;;14.63;7.78;;;;;;;;;;5072949;28;20022;-47
2021/06/26 03:02:14;;;;;;;19.95;8.88;;;;;;;;;;5072269;28;20032;-48
2021/06/26 03:04:40;;;;;;;14.63;8.02;;;;;;;;;;5072508;28;20036;-48
2021/06/26 03:07:06;;;;;;;20.98;9.07;;;;;;;;;;5072233;28;20064;-47
2021/06/26 03:09:32;;;;;;;19.25;9.02;;;;;;;;;;5072784;28;20017;-48
2021/06/26 03:11:58;;;;;;;19.77;9.93;;;;;;;;;;5071721;28;20214;-47
2021/06/26 03:14:24;;;;;;;18.20;8.10;;;;;;;;;;5072416;28;20024;-48
2021/06/26 03:16:50;;;;;;;26.50;8.85;;;;;;;;;;5072625;28;20112;-47
2021/06/26 03:19:16;;;;;;;16.08;8.60;;;;;;;;;;5071994;28;20421;-47
2021/06/26 03:21:42;;;;;;;20.73;8.80;;;;;;;;;;5071609;28;20359;-48
2021/06/26 03:24:08;;;;;;;13.57;7.28;;;;;;;;;;5072376;28;20027;-48
2021/06/26 03:26:34;;;;;;;19.13;7.88;;;;;;;;;;5072339;28;20024;-48
2021/06/26 03:29:04;;;;;;;16.75;7.85;;;;;;;;;;5072401;28;20020;-47
2021/06/26 03:31:30;;;;;;;16.90;7.18;;;;;;;;;;5071672;28;20020;-47
2021/06/26 03:33:56;;;;;;;16.95;7.43;;;;;;;;;;5071764;28;20126;-48
2021/06/26 03:36:24;;;;;;;16.90;8.00;;;;;;;;;;5072332;28;20033;-48
2021/06/26 03:38:50;;;;;;;14.18;7.60;;;;;;;;;;5072241;28;20102;-48
2021/06/26 03:41:16;;;;;;;19.38;8.85;;;;;;;;;;5071879;28;20016;-47
2021/06/26 03:43:42;;;;;;;16.85;7.40;;;;;;;;;;5072109;28;20107;-47
2021/06/26 03:46:08;;;;;;;18.08;8.57;;;;;;;;;;5072476;28;20377;-48
2021/06/26 03:48:35;;;;;;;13.50;7.32;;;;;;;;;;5072060;28;20094;-47
2021/06/26 03:51:01;;;;;;;18.27;8.48;;;;;;;;;;5071243;28;20029;-47
2021/06/26 03:53:27;;;;;;;16.83;7.97;;;;;;;;;;5072485;28;20470;-47
2021/06/26 03:55:53;;;;;;;14.45;7.68;;;;;;;;;;5075566;28;20103;-48
2021/06/26 03:58:23;;;;;;;15.52;7.60;;;;;;;;;;5075492;28;20063;-48
2021/06/26 04:00:50;;;;;;;16.45;7.75;;;;;;;;;;5074788;28;20045;-47
2021/06/26 04:03:16;;;;;;;16.88;7.78;;;;;;;;;;5075100;28;20047;-48
2021/06/26 04:05:45;;;;;;;14.95;8.23;;;;;;;;;;5075603;28;20021;-48
2021/06/26 04:08:12;;;;;;;15.95;7.32;;;;;;;;;;5075199;28;20020;-47
2021/06/26 04:10:38;;;;;;;15.63;6.57;;;;;;;;;;5074964;28;20031;-47
2021/06/26 04:13:04;;;;;;;17.80;7.30;;;;;;;;;;5075427;28;20067;-48
2021/06/26 04:15:31;;;;;;;21.83;9.07;;;;;;;;;;5075318;28;20020;-48
2021/06/26 04:17:56;;;;;;;19.25;8.88;;;;;;;;;;5074955;28;20359;-47
2021/06/26 04:20:22;;;;;;;16.60;9.10;;;;;;;;;;5072606;28;20033;-47
2021/06/26 04:22:48;;;;;;;21.40;9.18;;;;;;;;;;5072116;28;20075;-47
2021/06/26 04:25:15;;;;;;;18.60;9.23;;;;;;;;;;5075091;28;20150;-48
2021/06/26 04:27:41;;;;;;;20.02;9.23;;;;;;;;;;5074705;28;20081;-48
2021/06/26 04:30:08;;;;;;;18.33;9.05;;;;;;;;;;5074090;28;20036;-48
2021/06/26 04:32:36;;;;;;;16.75;8.07;;;;;;;;;;5068831;28;20398;-48
2021/06/26 04:35:03;;;;;;;16.90;7.90;;;;;;;;;;5074942;28;20025;-48
2021/06/26 04:37:29;;;;;;;19.33;9.00;;;;;;;;;;5074604;28;20059;-47
2021/06/26 04:39:55;;;;;;;20.85;8.50;;;;;;;;;;5074949;28;20221;-48
2021/06/26 04:42:21;;;;;;;12.38;7.43;;;;;;;;;;5074170;28;20090;-47
2021/06/26 04:44:47;;;;;;;12.65;7.88;;;;;;;;;;5068728;28;20219;-48
2021/06/26 04:47:13;;;;;;;13.18;7.40;;;;;;;;;;5074556;28;20217;-48
2021/06/26 04:49:39;;;;;;;17.48;7.60;;;;;;;;;;5075062;28;20099;-48
2021/06/26 04:52:05;;;;;;;18.65;8.10;;;;;;;;;;5074068;28;20406;-48
2021/06/26 04:54:32;;;;;;;13.68;7.55;;;;;;;;;;5074546;28;20024;-48
2021/06/26 04:56:58;;;;;;;13.02;7.18;;;;;;;;;;5074524;28;20020;-48
2021/06/26 04:59:24;;;;;;;24.35;9.38;;;;;;;;;;5073984;28;20037;-48
2021/06/26 05:01:50;;;;;;;14.00;7.55;;;;;;;;;;5073756;28;20047;-47
2021/06/26 05:04:16;;;;;;;18.33;7.53;;;;;;;;;;5074407;28;20024;-48
2021/06/26 05:06:42;;;;;;;17.40;8.68;;;;;;;;;;5073809;28;20020;-48
2021/06/26 05:09:08;;;;;;;12.25;7.05;;;;;;;;;;5074204;28;20078;-49
2021/06/26 05:11:34;;;;;;;19.52;8.38;;;;;;;;;;5073385;28;20130;-48
2021/06/26 05:14:00;;;;;;;19.67;8.43;;;;;;;;;;5073830;28;20448;-48
2021/06/26 05:16:26;;;;;;;16.92;9.43;;;;;;;;;;5073455;28;20020;-48
2021/06/26 05:18:52;;;;;;;22.58;10.05;;;;;;;;;;5057569;28;20357;-48
2021/06/26 05:21:19;;;;;;;21.10;9.57;;;;;;;;;;5072024;28;20020;-48
2021/06/26 05:23:45;;;;;;;26.23;10.43;;;;;;;;;;5054147;28;20032;-47
2021/06/26 05:26:11;;;;;;;16.73;9.50;;;;;;;;;;5053914;28;20024;-48
2021/06/26 05:28:37;;;;;;;19.55;9.35;;;;;;;;;;5053921;28;20184;-47
2021/06/26 05:31:05;;;;;;;21.23;9.95;;;;;;;;;;5052962;28;20131;-47
2021/06/26 05:33:31;;;;;;;21.90;10.77;;;;;;;;;;5053671;28;20036;-47
2021/06/26 05:35:57;;;;;;;19.33;8.85;;;;;;;;;;5054031;28;20017;-47
2021/06/26 05:38:23;;;;;;;18.00;8.70;;;;;;;;;;5053748;28;20029;-47
2021/06/26 05:40:49;;;;;;;18.90;9.52;;;;;;;;;;5052895;28;20083;-47
2021/06/26 05:43:16;;;;;;;20.75;9.30;;;;;;;;;;5053574;28;20123;-47
2021/06/26 05:45:42;;;;;;;19.33;9.45;;;;;;;;;;5053547;28;20432;-48
2021/06/26 05:48:08;;;;;;;21.27;10.48;;;;;;;;;;5053315;28;20029;-48
2021/06/26 05:50:34;;;;;;;15.60;8.43;;;;;;;;;;5050934;28;20017;-48
2021/06/26 05:53:00;;;;;;;14.50;7.78;;;;;;;;;;5054128;28;20108;-48
2021/06/26 05:55:27;;;;;;;17.55;8.32;;;;;;;;;;5053410;28;20017;-48
2021/06/26 05:57:53;;;;;;;19.38;9.75;;;;;;;;;;5052974;28;20079;-47
2021/06/26 06:00:20;;;;;;;19.65;10.35;;;;;;;;;;5061557;28;20021;-48
2021/06/26 06:02:46;;;;;;;18.52;10.02;;;;;;;;;;5073419;28;20039;-47
2021/06/26 06:05:13;;;;;;;20.60;9.68;;;;;;;;;;5073183;28;20454;-48
2021/06/26 06:07:40;;;;;;;23.50;10.82;;;;;;;;;;5073034;28;20368;-47
2021/06/26 06:10:06;;;;;;;21.90;11.20;;;;;;;;;;5072396;28;20567;-47
2021/06/26 06:12:33;;;;;;;20.77;10.63;;;;;;;;;;5073171;28;20035;-48
2021/06/26 06:14:59;;;;;;;27.75;11.55;;;;;;;;;;5072696;28;20039;-47
2021/06/26 06:17:25;;;;;;;24.58;12.35;;;;;;;;;;5071933;28;20128;-47
2021/06/26 06:19:52;;;;;;;24.77;12.52;;;;;;;;;;5072913;28;20327;-47
2021/06/26 06:22:18;;;;;;;21.75;12.18;;;;;;;;;;5072449;28;20028;-47
2021/06/26 06:24:44;;;;;;;19.17;10.82;;;;;;;;;;5073183;28;20020;-48
2021/06/26 06:27:10;;;;;;;20.45;12.00;;;;;;;;;;5072898;28;20044;-48
2021/06/26 06:29:36;;;;;;;21.15;11.18;;;;;;;;;;5072322;28;20078;-48
2021/06/26 06:32:02;;;;;;;29.75;13.30;;;;;;;;;;5072331;28;20020;-47
2021/06/26 06:34:28;;;;;;;22.48;11.93;;;;;;;;;;5073032;28;20456;-47
2021/06/26 06:36:54;;;;;;;21.80;11.15;;;;;;;;;;5072732;28;20406;-48
2021/06/26 06:39:21;;;;;;;24.48;12.93;;;;;;;;;;5072688;28;20077;-47
2021/06/26 06:41:47;;;;;;;27.58;13.30;;;;;;;;;;5071697;28;20350;-47
2021/06/26 06:44:13;;;;;;;28.80;14.45;;;;;;;;;;5072680;28;20032;-48
2021/06/26 06:46:39;;;;;;;25.33;13.32;;;;;;;;;;5072800;28;20112;-47
2021/06/26 06:49:05;;;;;;;27.73;13.00;;;;;;;;;;5072838;28;20101;-47
2021/06/26 06:51:30;;;;;;;29.83;13.50;;;;;;;;;;5070432;28;20025;-47
2021/06/26 06:53:58;;;;;;;28.13;13.98;;;;;;;;;;5072588;28;20411;-48
2021/06/26 06:56:24;;;;;;;24.25;13.05;;;;;;;;;;5072036;28;20036;-47
2021/06/26 06:58:50;;;;;;;29.10;13.45;;;;;;;;;;5072769;28;20033;-47
2021/06/26 07:01:16;;;;;;;23.77;12.95;;;;;;;;;;5071671;28;20032;-47
2021/06/26 07:03:42;;;;;;;26.67;12.90;;;;;;;;;;5072270;28;20371;-48
2021/06/26 07:06:08;;;;;;;35.78;15.60;;;;;;;;;;5072608;28;20021;-47
2021/06/26 07:08:34;;;;;;;24.17;13.15;;;;;;;;;;5072544;28;20086;-48
2021/06/26 07:11:00;;;;;;;26.48;14.15;;;;;;;;;;5071865;28;20409;-48
2021/06/26 07:13:26;;;;;;;37.78;15.35;;;;;;;;;;5072439;28;20448;-48
2021/06/26 07:15:52;;;;;;;28.45;12.32;;;;;;;;;;5072515;28;20059;-47
2021/06/26 07:18:18;;;;;;;30.48;13.85;;;;;;;;;;5072417;28;20064;-48
2021/06/26 07:20:44;;;;;;;37.67;15.40;;;;;;;;;;5071497;28;20031;-48
2021/06/26 07:23:10;;;;;;;39.13;16.02;;;;;;;;;;5072509;28;20107;-47
2021/06/26 07:25:36;;;;;;;35.58;13.93;;;;;;;;;;5072178;28;20733;-47
2021/06/26 07:28:02;;;;;;;40.38;15.05;;;;;;;;;;5072595;28;20032;-48
2021/06/26 07:30:28;;;;;;;28.15;13.27;;;;;;;;;;5075321;28;20455;-48
2021/06/26 07:32:54;;;;;;;24.92;12.00;;;;;;;;;;5076323;28;20033;-48
2021/06/26 07:35:20;;;;;;;29.40;13.82;;;;;;;;;;5076139;28;20051;-48
2021/06/26 07:37:46;;;;;;;42.70;14.70;;;;;;;;;;5076168;28;20028;-48
2021/06/26 07:40:14;;;;;;;29.10;15.57;;;;;;;;;;5075788;28;20073;-48
2021/06/26 07:42:40;;;;;;;31.67;13.43;;;;;;;;;;5075727;28;20052;-47
2021/06/26 07:45:06;;;;;;;30.50;15.45;;;;;;;;;;5076136;28;20056;-48
2021/06/26 07:47:33;;;;;;;22.95;11.70;;;;;;;;;;5076062;28;20024;-48
2021/06/26 07:49:59;;;;;;;31.08;14.45;;;;;;;;;;5074882;28;20144;-48
2021/06/26 07:52:25;;;;;;;28.33;14.13;;;;;;;;;;5074947;28;20494;-48
2021/06/26 07:54:51;;;;;;;36.33;14.80;;;;;;;;;;5072296;28;20024;-48
2021/06/26 07:57:17;;;;;;;31.10;16.58;;;;;;;;;;5069652;28;20039;-49
2021/06/26 07:59:44;;;;;;;31.98;14.90;;;;;;;;;;5074510;28;20028;-48
2021/06/26 08:02:10;;;;;;;37.78;16.25;;;;;;;;;;5072255;28;20021;-48
2021/06/26 08:04:36;;;;;;;22.88;12.23;;;;;;;;;;5075200;28;20028;-47
2021/06/26 08:07:02;;;;;;;30.20;15.48;;;;;;;;;;5075646;28;20020;-48
2021/06/26 08:09:28;;;;;;;34.38;13.95;;;;;;;;;;5075619;28;20032;-48
2021/06/26 08:11:54;;;;;;;64.18;14.07;;;;;;;;;;5074773;28;20020;-48
2021/06/26 08:14:20;;;;;;;35.60;14.20;;;;;;;;;;5075562;28;20025;-48
2021/06/26 08:16:46;;;;;;;35.25;13.10;;;;;;;;;;5073347;28;20344;-48
2021/06/26 08:19:12;;;;;;;29.00;12.95;;;;;;;;;;5074711;28;20040;-47
2021/06/26 08:21:38;;;;;;;25.70;13.57;;;;;;;;;;5074512;28;20098;-47
2021/06/26 08:24:05;;;;;;;37.95;15.80;;;;;;;;;;5075458;28;20059;-47
2021/06/26 08:26:31;;;;;;;25.00;12.80;;;;;;;;;;5075010;28;20030;-48
2021/06/26 08:28:57;;;;;;;20.80;11.52;;;;;;;;;;5074918;28;20028;-48
2021/06/26 08:31:23;;;;;;;20.98;11.70;;;;;;;;;;5074178;28;20112;-48
2021/06/26 08:33:49;;;;;;;18.85;9.93;;;;;;;;;;5074552;28;20074;-48
2021/06/26 08:36:15;;;;;;;20.05;11.40;;;;;;;;;;5075154;28;20040;-48
2021/06/26 08:38:41;;;;;;;26.15;11.38;;;;;;;;;;5074743;28;20112;-47
2021/06/26 08:41:07;;;;;;;18.13;10.55;;;;;;;;;;5073162;28;20115;-47
2021/06/26 08:43:34;;;;;;;21.35;10.27;;;;;;;;;;5074736;28;20025;-48
2021/06/26 08:46:00;;;;;;;19.33;11.25;;;;;;;;;;5075267;28;20035;-47
2021/06/26 08:48:27;;;;;;;47.58;10.68;;;;;;;;;;5074439;28;20035;-47
2021/06/26 08:50:53;;;;;;;20.70;9.57;;;;;;;;;;5074056;28;20070;-48
2021/06/26 08:53:19;;;;;;;29.75;9.48;;;;;;;;;;5074797;28;20039;-48
2021/06/26 08:55:45;;;;;;;19.15;10.18;;;;;;;;;;5074679;28;20116;-48
2021/06/26 08:58:12;;;;;;;17.48;9.32;;;;;;;;;;5074228;28;20032;-48
2021/06/26 09:00:38;;;;;;;13.82;7.88;;;;;;;;;;5073586;28;20074;-48
2021/06/26 09:03:06;;;;;;;22.40;9.00;;;;;;;;;;5074261;28;20033;-47
2021/06/26 09:05:32;;;;;;;20.77;8.65;;;;;;;;;;5074652;28;20017;-48
2021/06/26 09:08:11;;;;;;;22.70;8.55;;;;;;;;;;5074189;28;20083;-47
2021/06/26 09:10:38;;;;;;;45.17;7.93;;;;;;;;;;5073832;28;20016;-48
2021/06/26 09:13:30;;;;;;;53.90;10.10;;;;;;;;;;5074016;28;20259;-48
2021/06/26 09:16:06;;;;;;;16.20;7.25;;;;;;;;;;5072082;28;20132;-48
2021/06/26 09:18:39;;;;;;;13.55;8.20;;;;;;;;;;5074035;28;20040;-47
2021/06/26 09:21:16;;;;;;;14.90;7.60;;;;;;;;;;5073475;28;20036;-48
2021/06/26 09:23:42;;;;;;;16.85;8.98;;;;;;;;;;5074197;28;20025;-48
2021/06/26 09:26:12;;;;;;;11.93;6.55;;;;;;;;;;5073786;28;20023;-47
2021/06/26 09:28:39;;;;;;;10.27;6.15;;;;;;;;;;5073660;28;20025;-47
2021/06/26 09:31:14;;;;;;;11.60;6.90;;;;;;;;;;5073494;28;20344;-48
2021/06/26 09:33:40;;;;;;;12.60;7.38;;;;;;;;;;5074025;28;20336;-48
2021/06/26 09:36:09;;;;;;;12.65;7.65;;;;;;;;;;5073930;28;20520;-47
2021/06/26 09:38:37;;;;;;;14.82;8.18;;;;;;;;;;5073737;28;20339;-47
2021/06/26 09:41:16;;;;;;;12.02;7.22;;;;;;;;;;5073248;28;20052;-47
2021/06/26 09:43:42;;;;;;;15.32;7.68;;;;;;;;;;5073456;28;20025;-48
2021/06/26 09:46:13;;;;;;;13.18;6.82;;;;;;;;;;5073457;28;20119;-48
2021/06/26 09:48:38;;;;;;;;;;;;;;;;;;5073977;28;20111;-47
2021/06/26 09:51:04;;;;;;;12.25;6.85;;;;;;;;;;5072621;28;20058;-47
2021/06/26 09:53:31;;;;;;;12.18;6.28;;;;;;;;;;5073575;28;20028;-48
2021/06/26 09:55:57;;;;;;;9.98;6.18;;;;;;;;;;5073311;28;20416;-47
2021/06/26 09:58:23;;;;;;;10.02;5.47;;;;;;;;;;5073459;28;20360;-47
2021/06/26 10:00:49;;;;;;;14.50;6.63;;;;;;;;;;5072079;28;20340;-48
2021/06/26 10:03:16;;;;;;;9.55;6.03;;;;;;;;;;5072833;28;20025;-47
2021/06/26 10:05:44;;;;;;;10.00;5.90;;;;;;;;;;5073418;28;20036;-47
2021/06/26 10:08:10;;;;;;;9.13;5.80;;;;;;;;;;5073091;28;20021;-47
2021/06/26 10:10:36;;;;;;;14.77;6.13;;;;;;;;;;5072468;28;20447;-47
2021/06/26 10:13:03;;;;;;;8.07;5.72;;;;;;;;;;5072586;28;20028;-48
2021/06/26 10:15:31;;;;;;;22.17;5.88;;;;;;;;;;5073104;28;20032;-47
2021/06/26 10:17:57;;;;;;;13.82;5.97;;;;;;;;;;5072812;28;20039;-47
2021/06/26 10:20:25;;;;;;;10.10;5.53;;;;;;;;;;5072268;28;20372;-48
2021/06/26 10:22:55;;;;;;;9.15;5.68;;;;;;;;;;5073213;28;20146;-48
2021/06/26 10:25:22;;;;;;;13.85;5.28;;;;;;;;;;5073004;28;20029;-48
2021/06/26 10:27:48;;;;;;;10.30;5.80;;;;;;;;;;5073255;28;20031;-48
2021/06/26 10:30:20;;;;;;;8.18;4.78;;;;;;;;;;5072486;28;20044;-49
2021/06/26 10:32:51;;;;;;;11.65;5.07;;;;;;;;;;5072708;28;20085;-49
2021/06/26 10:35:17;;;;;;;8.95;5.32;;;;;;;;;;5072585;28;20432;-48
2021/06/26 10:37:43;;;;;;;9.07;5.50;;;;;;;;;;5072731;28;20032;-48
2021/06/26 10:40:09;;;;;;;7.18;4.93;;;;;;;;;;5072187;28;20028;-48
2021/06/26 10:42:37;;;;;;;11.60;5.38;;;;;;;;;;5072858;28;20016;-48
2021/06/26 10:45:04;;;;;;;17.50;6.20;;;;;;;;;;5072467;28;20020;-48
2021/06/26 10:47:35;;;;;;;10.25;4.80;;;;;;;;;;5072579;28;20020;-48
2021/06/26 10:50:14;;;;;;;8.70;4.75;;;;;;;;;;5073059;28;20115;-48
2021/06/26 10:52:54;;;;;;;6.90;4.80;;;;;;;;;;5071709;28;20043;-48
2021/06/26 10:55:30;;;;;;;8.68;5.60;;;;;;;;;;5062842;28;20478;-48
2021/06/26 10:57:56;;;;;;;7.47;4.85;;;;;;;;;;5062865;28;20036;-49
2021/06/26 11:00:36;;;;;;;6.60;4.63;;;;;;;;;;5062273;28;20627;-48
2021/06/26 11:03:02;;;;;;;;;;;;;;;;;;5063251;28;20047;-49
2021/06/26 11:05:33;;;;;;;11.48;4.95;;;;;;;;;;5074668;28;19904;-47
2021/06/26 11:07:59;;;;;;;8.23;4.72;;;;;;;;;;5076744;28;20078;-48
2021/06/26 11:10:26;;;;;;;8.02;5.38;;;;;;;;;;5076168;28;20080;-48
2021/06/26 11:12:52;;;;;;;8.70;4.38;;;;;;;;;;5076308;28;20065;-48
2021/06/26 11:15:28;;;;;;;7.55;5.43;;;;;;;;;;5076737;28;20081;-48
2021/06/26 11:17:55;;;;;;;9.32;5.55;;;;;;;;;;5076375;28;20036;-48
2021/06/26 11:20:21;;;;;;;8.48;4.70;;;;;;;;;;5075606;28;20033;-48
2021/06/26 11:22:55;;;;;;;10.93;5.22;;;;;;;;;;5076487;28;20165;-48
2021/06/26 11:25:21;;;;;;;7.47;4.72;;;;;;;;;;5076643;28;20048;-48
2021/06/26 11:27:47;;;;;;;9.07;3.47;;;;;;;;;;5076401;28;20470;-48
2021/06/26 11:30:14;;;;;;;8.75;5.07;;;;;;;;;;5075693;28;20460;-48
2021/06/26 11:32:40;;;;;;;12.43;5.57;;;;;;;;;;5075897;28;20020;-48
2021/06/26 11:35:09;;;;;;;13.15;5.53;;;;;;;;;;5076091;28;20103;-48
2021/06/26 11:37:35;;;;;;;10.40;5.40;;;;;;;;;;5076267;28;20040;-48
2021/06/26 11:40:03;;;;;;;10.80;4.70;;;;;;;;;;5076000;28;20262;-48
2021/06/26 11:42:29;;;;;;;6.35;3.95;;;;;;;;;;5076168;28;20024;-48
2021/06/26 11:44:55;;;;;;;6.50;4.68;;;;;;;;;;5075559;28;20075;-48
2021/06/26 11:47:24;;;;;;;9.25;4.95;;;;;;;;;;5058268;28;20021;-47
2021/06/26 11:49:50;;;;;;;7.40;4.07;;;;;;;;;;5056023;28;20029;-48
2021/06/26 11:52:16;;;;;;;8.05;5.63;;;;;;;;;;5053743;28;20036;-48
2021/06/26 11:54:43;;;;;;;7.15;4.80;;;;;;;;;;5055706;28;20025;-48
2021/06/26 11:57:12;;;;;;;20.30;8.68;;;;;;;;;;5055585;28;20083;-48
2021/06/26 11:59:48;;;;;;;9.77;4.75;;;;;;;;;;5058898;28;20048;-48
2021/06/26 12:02:15;;;;;;;8.90;5.07;;;;;;;;;;5074902;28;20368;-48
2021/06/26 12:04:41;;;;;;;6.43;4.03;;;;;;;;;;5075705;28;20448;-49
2021/06/26 12:07:09;;;;;;;6.82;4.43;;;;;;;;;;5075487;28;20028;-48
2021/06/26 12:09:35;;;;;;;9.50;5.60;;;;;;;;;;5075761;28;20036;-47
2021/06/26 12:12:01;;;;;;;6.88;4.38;;;;;;;;;;5074702;28;20447;-48
2021/06/26 12:14:29;;;;;;;9.18;4.88;;;;;;;;;;5075350;28;20112;-48
2021/06/26 12:17:02;;;;;;;6.25;4.20;;;;;;;;;;5075285;28;20028;-48
2021/06/26 12:19:31;;;;;;;8.38;4.25;;;;;;;;;;5075501;28;20040;-48
2021/06/26 12:21:57;;;;;;;7.45;4.53;;;;;;;;;;5074263;28;20451;-48
2021/06/26 12:24:44;;;;;;;17.52;5.25;;;;;;;;;;5075241;28;20074;-48
2021/06/26 12:27:15;;;;;;;6.43;4.30;;;;;;;;;;5075207;28;20028;-48
2021/06/26 12:29:53;;;;;;;9.68;4.28;;;;;;;;;;5075287;28;20028;-48
2021/06/26 12:32:23;;;;;;;15.52;4.60;;;;;;;;;;5074330;28;20025;-48
2021/06/26 12:34:49;;;;;;;7.47;4.57;;;;;;;;;;5074981;28;20102;-48
2021/06/26 12:37:15;;;;;;;11.30;4.18;;;;;;;;;;5074719;28;20463;-48
2021/06/26 12:39:41;;;;;;;8.77;6.18;;;;;;;;;;5074504;28;20377;-48
2021/06/26 12:42:12;;;;;;;6.93;4.40;;;;;;;;;;5073991;28;20016;-48
2021/06/26 12:44:39;;;;;;;6.50;4.10;;;;;;;;;;5075066;28;20039;-48
2021/06/26 12:47:05;;;;;;;4.40;3.45;;;;;;;;;;5067832;28;20067;-47
2021/06/26 12:49:37;;;;;;;6.20;3.63;;;;;;;;;;5054615;28;20253;-48
2021/06/26 12:52:10;;;;;;;7.22;4.18;;;;;;;;;;5053888;28;20021;-48
2021/06/26 12:54:46;;;;;;;7.18;3.90;;;;;;;;;;5054282;28;20021;-48
2021/06/26 12:57:12;;;;;;;11.48;5.05;;;;;;;;;;5054959;28;20318;-48
2021/06/26 12:59:38;;;;;;;13.07;5.18;;;;;;;;;;5057507;28;20541;-48
2021/06/26 13:02:04;;;;;;;6.53;4.03;;;;;;;;;;5073840;28;20103;-48
2021/06/26 13:04:36;;;;;;;7.53;4.60;;;;;;;;;;5073616;28;20028;-48
2021/06/26 13:07:02;;;;;;;7.88;4.20;;;;;;;;;;5074672;28;20021;-48
2021/06/26 13:09:32;;;;;;;5.82;4.53;;;;;;;;;;5074295;28;20104;-48
2021/06/26 13:12:19;;;;;;;6.65;4.47;;;;;;;;;;5073703;28;20033;-48
2021/06/26 13:14:46;;;;;;;11.15;5.07;;;;;;;;;;5073947;28;20062;-48
2021/06/26 13:17:13;;;;;;;6.10;4.25;;;;;;;;;;5074113;28;20020;-48
2021/06/26 13:19:39;;;;;;;11.38;4.50;;;;;;;;;;5073785;28;20033;-48
2021/06/26 13:22:06;;;;;;;7.25;4.25;;;;;;;;;;5073348;28;20024;-48
2021/06/26 13:24:32;;;;;;;6.75;5.07;;;;;;;;;;5073656;28;20507;-49
2021/06/26 13:26:58;;;;;;;6.55;4.50;;;;;;;;;;5073869;28;20029;-48
2021/06/26 13:29:25;;;;;;;7.35;4.63;;;;;;;;;;5073618;28;20035;-48
2021/06/26 13:31:51;;;;;;;6.47;4.65;;;;;;;;;;5072921;28;20052;-48
2021/06/26 13:34:17;;;;;;;6.93;4.05;;;;;;;;;;5073737;28;20029;-49
2021/06/26 13:36:43;;;;;;;9.10;4.82;;;;;;;;;;5073676;28;20027;-48
2021/06/26 13:39:09;;;;;;;4.55;4.07;;;;;;;;;;5073656;28;20032;-48
2021/06/26 13:41:35;;;;;;;6.22;4.32;;;;;;;;;;5072886;28;20017;-48
2021/06/26 13:44:01;;;;;;;5.90;4.40;;;;;;;;;;5073737;28;20028;-48
2021/06/26 13:46:27;;;;;;;10.52;5.03;;;;;;;;;;5072976;28;20086;-48
2021/06/26 13:48:54;;;;;;;19.35;4.85;;;;;;;;;;5073587;28;20021;-48
2021/06/26 13:51:22;;;;;;;6.78;4.03;;;;;;;;;;5072897;28;20329;-49
2021/06/26 13:53:48;;;;;;;7.10;4.35;;;;;;;;;;5073688;28;20036;-48
2021/06/26 13:56:14;;;;;;;6.90;4.22;;;;;;;;;;5073660;28;20099;-48
2021/06/26 13:58:40;;;;;;;5.47;4.45;;;;;;;;;;5073200;28;20119;-48
2021/06/26 14:01:06;;;;;;;10.85;4.20;;;;;;;;;;5072587;28;20527;-48
2021/06/26 14:03:32;;;;;;;7.00;4.35;;;;;;;;;;5073315;28;20021;-48
2021/06/26 14:05:58;;;;;;;6.25;4.28;;;;;;;;;;5072935;28;20405;-48
2021/06/26 14:08:24;;;;;;;6.53;3.83;;;;;;;;;;5073582;28;20032;-48
2021/06/26 14:10:54;;;;;;;4.70;3.33;;;;;;;;;;5070468;28;20021;-48
2021/06/26 14:13:20;;;;;;;6.15;4.07;;;;;;;;;;5073063;28;20367;-48
2021/06/26 14:15:46;;;;;;;5.38;4.18;;;;;;;;;;5073603;28;20109;-48
2021/06/26 14:18:12;;;;;;;5.18;4.05;;;;;;;;;;5072856;28;20124;-48
2021/06/26 14:20:38;;;;;;;6.75;4.60;;;;;;;;;;5071760;28;20077;-48
2021/06/26 14:23:05;;;;;;;7.03;4.40;;;;;;;;;;5073317;28;20031;-48
2021/06/26 14:25:31;;;;;;;7.32;4.10;;;;;;;;;;5072832;28;20063;-48
2021/06/26 14:27:57;;;;;;;6.03;4.10;;;;;;;;;;5073136;28;20028;-48
2021/06/26 14:30:23;;;;;;;5.57;3.70;;;;;;;;;;5072227;28;20028;-48